createdAt,value
2022-10-15T00:48:10.891Z,992.8685913
2022-10-15T00:48:50.887Z,992.8337402
2022-10-15T00:49:57.978Z,992.8495483
2022-10-15T00:50:54.434Z,992.9335938
2022-10-15T00:51:56.559Z,992.9671631
2022-10-15T00:52:51.665Z,992.9124756
2022-10-15T00:53:51.023Z,992.9003296
2022-10-15T00:54:49.282Z,992.9196777
2022-10-15T00:56:47.527Z,993.0093994
2022-10-15T00:57:41.252Z,993.0239258
2022-10-15T00:58:40.160Z,992.9690552
2022-10-15T00:59:33.600Z,992.9995117
2022-10-15T01:00:31.831Z,992.9957886
2022-10-15T01:01:28.110Z,992.9519043
2022-10-15T01:02:27.801Z,992.9854736
2022-10-15T01:03:28.622Z,992.9389038
2022-10-15T01:04:28.135Z,992.951355
2022-10-15T01:05:18.556Z,992.9795532
2022-10-15T01:06:15.089Z,992.9604492
2022-10-15T01:07:14.045Z,992.9702148
2022-10-15T01:08:10.002Z,992.9347534
2022-10-15T01:09:13.825Z,993.0192871
2022-10-15T01:10:05.604Z,993.045166
2022-10-15T01:11:06.358Z,993.015564
2022-10-15T01:11:56.727Z,992.9960938
2022-10-15T01:12:52.835Z,993.0092163
2022-10-15T01:13:47.354Z,993.0349121
2022-10-15T01:14:50.573Z,992.9785156
2022-10-15T01:16:46.403Z,993.0251465
2022-10-15T01:17:45.765Z,992.9795532
2022-10-15T01:19:23.167Z,992.9915771
2022-10-15T01:21:37.633Z,992.9345093
2022-10-15T01:22:21.149Z,992.9086914
2022-10-15T01:23:21.259Z,992.8870239
2022-10-15T01:24:17.943Z,992.8998413
2022-10-15T01:25:13.137Z,992.9870605
2022-10-15T01:26:11.299Z,992.9033813
2022-10-15T01:27:05.847Z,992.9526367
2022-10-15T01:28:07.322Z,993.001709
2022-10-15T01:29:02.411Z,993.0301514
2022-10-15T01:29:59.426Z,993.0476685
2022-10-15T01:31:51.201Z,993.0116577
2022-10-15T01:32:54.363Z,993.005249
2022-10-15T01:33:53.980Z,993.0100098
2022-10-15T01:34:48.587Z,992.9561157
2022-10-15T01:36:43.759Z,993.0264282
2022-10-15T01:37:42.460Z,993.0577393
2022-10-15T01:38:36.797Z,993.097168
2022-10-15T01:39:39.772Z,993.0142212
2022-10-15T01:40:35.201Z,993.1203003
2022-10-15T01:41:37.505Z,993.1068115
2022-10-15T01:42:30.625Z,993.064209
2022-10-15T01:43:29.423Z,993.1724854
2022-10-15T01:44:25.143Z,993.2037354
2022-10-15T01:45:27.403Z,993.1902466
2022-10-15T01:47:21.153Z,993.1564331
2022-10-15T01:48:15.648Z,993.1620483
2022-10-15T01:49:17.941Z,993.2047119
2022-10-15T01:50:14.462Z,993.1564331
2022-10-15T01:51:14.154Z,993.1403198
2022-10-15T01:52:10.392Z,993.0680542
2022-10-15T01:53:09.610Z,993.0806885
2022-10-15T01:54:10.266Z,993.1384888
2022-10-15T01:55:01.175Z,993.0454102
2022-10-15T01:56:05.982Z,993.0371704
2022-10-15T01:56:56.738Z,993.0501709
2022-10-15T01:57:55.156Z,992.9993896
2022-10-15T01:58:48.596Z,993.0571289
2022-10-15T01:59:46.533Z,993.0513916
2022-10-15T02:00:44.692Z,993.0353394
2022-10-15T02:01:47.474Z,993.0539551
2022-10-15T02:02:40.079Z,993.0296631
2022-10-15T02:03:42.036Z,993.1148682
2022-10-15T02:04:35.295Z,993.0457764
2022-10-15T02:06:29.469Z,993.0587769
2022-10-15T02:07:25.219Z,992.9631348
2022-10-15T02:08:57.193Z,992.9974976
2022-10-15T02:09:43.493Z,992.9501343
2022-10-15T02:10:41.925Z,992.9640503
2022-10-15T02:11:45.585Z,992.9718628
2022-10-15T02:12:41.225Z,992.9640503
2022-10-15T02:13:40.855Z,992.9662476
2022-10-15T02:14:37.915Z,992.913269
2022-10-15T02:15:37.819Z,992.9605713
2022-10-15T02:16:35.032Z,992.9157715
2022-10-15T02:17:36.857Z,992.883606
2022-10-15T02:18:39.779Z,992.859314
2022-10-15T02:19:41.623Z,992.8987427
2022-10-15T02:21:37.551Z,992.8721924
2022-10-15T02:22:37.404Z,992.8930664
2022-10-15T02:23:33.037Z,992.9034424
2022-10-15T02:24:37.237Z,992.8953247
2022-10-15T02:25:30.185Z,993.0359497
2022-10-15T02:27:26.729Z,992.946106
2022-10-15T02:28:33.042Z,992.8792114
2022-10-15T02:29:29.315Z,992.8608398
2022-10-15T02:30:30.035Z,992.8343506
2022-10-15T02:31:25.528Z,992.7996826
2022-10-15T02:32:27.223Z,992.8309326
2022-10-15T02:33:28.973Z,992.8043823
2022-10-15T02:34:30.117Z,992.7965698
2022-10-15T02:35:41.445Z,992.8390503
2022-10-15T02:36:42.082Z,992.8573608
2022-10-15T02:37:47.006Z,992.7907715
2022-10-15T02:38:45.148Z,992.7907715
2022-10-15T02:39:47.597Z,992.7987671
2022-10-15T02:40:40.353Z,992.7907715
2022-10-15T02:41:42.180Z,992.7930298
2022-10-15T02:42:42.752Z,992.758606
2022-10-15T02:43:35.934Z,992.713623
2022-10-15T02:44:38.125Z,992.7826538
2022-10-15T02:46:33.266Z,992.8356323
2022-10-15T02:47:32.797Z,992.8990479
2022-10-15T02:49:10.137Z,992.9359131
2022-10-15T02:49:37.579Z,992.9368896
2022-10-15T02:51:36.056Z,993.0665894
2022-10-15T02:52:36.169Z,992.9710083
2022-10-15T02:53:34.331Z,993.0874023
2022-10-15T02:54:34.275Z,993.0900269
2022-10-15T02:55:30.842Z,993.1268921
2022-10-15T02:57:33.287Z,993.1051025
2022-10-15T02:58:35.126Z,993.0864868
2022-10-15T02:59:40.604Z,993.0021973
2022-10-15T03:01:43.175Z,992.9564819
2022-10-15T03:02:43.889Z,992.9321899
2022-10-15T03:03:39.819Z,992.9185791
2022-10-15T03:04:39.727Z,992.9046631
2022-10-15T03:05:41.662Z,992.9254761
2022-10-15T03:06:41.092Z,992.8588867
2022-10-15T03:07:39.261Z,992.8668823
2022-10-15T03:08:44.278Z,992.789856
2022-10-15T03:09:41.895Z,992.90625
2022-10-15T03:11:42.241Z,992.8314819
2022-10-15T03:12:40.460Z,992.8601685
2022-10-15T03:13:42.509Z,992.8948364
2022-10-15T03:14:40.144Z,992.8809204
2022-10-15T03:16:38.959Z,992.8684082
2022-10-15T03:17:40.127Z,992.882019
2022-10-15T03:18:45.785Z,992.8475952
2022-10-15T03:19:41.213Z,992.8153687
2022-10-15T03:21:36.514Z,992.8659668
2022-10-15T03:22:38.324Z,992.786377
2022-10-15T03:23:36.469Z,992.8418579
2022-10-15T03:24:41.303Z,992.7910767
2022-10-15T03:25:46.489Z,992.7324219
2022-10-15T03:26:40.758Z,992.7750244
2022-10-15T03:27:43.086Z,992.7406006
2022-10-15T03:29:38.197Z,992.77948
2022-10-15T03:30:17.628Z,992.7746582
2022-10-15T03:31:19.005Z,992.8100586
2022-10-15T03:32:16.574Z,992.7595215
2022-10-15T03:33:14.716Z,992.7722168
2022-10-15T03:34:20.429Z,992.723877
2022-10-15T03:35:16.231Z,992.6387329
2022-10-15T03:36:24.869Z,992.6356201
2022-10-15T03:37:22.110Z,992.5929565
2022-10-15T03:38:20.060Z,992.5504761
2022-10-15T03:39:23.989Z,992.5421753
2022-10-15T03:40:24.972Z,992.526123
2022-10-15T03:42:18.769Z,992.5526733
2022-10-15T03:43:18.517Z,992.5873413
2022-10-15T03:44:13.667Z,992.6425171
2022-10-15T03:45:21.108Z,992.5655518
2022-10-15T03:47:11.062Z,992.461731
2022-10-15T03:48:09.937Z,992.5308838
2022-10-15T03:49:05.829Z,992.506897
2022-10-15T03:50:06.944Z,992.5276489
2022-10-15T03:51:59.831Z,992.5620117
2022-10-15T03:53:02.525Z,992.6149902
2022-10-15T03:54:00.225Z,992.5437622
2022-10-15T03:55:05.789Z,992.5090332
2022-10-15T03:55:57.759Z,992.5412598
2022-10-15T03:57:01.613Z,992.6207886
2022-10-15T03:57:56.394Z,992.5942383
2022-10-15T03:59:01.078Z,992.5516968
2022-10-15T03:59:54.413Z,992.5412598
2022-10-15T04:01:40.753Z,992.5560913
2022-10-15T04:02:23.163Z,992.5223389
2022-10-15T04:03:23.427Z,992.5257568
2022-10-15T04:04:20.981Z,992.5119019
2022-10-15T04:05:27.525Z,992.5006104
2022-10-15T04:07:23.462Z,992.4996338
2022-10-15T04:08:22.707Z,992.4938965
2022-10-15T04:09:24.819Z,992.5333862
2022-10-15T04:10:17.084Z,992.5251465
2022-10-15T04:11:17.964Z,992.5412598
2022-10-15T04:12:13.612Z,992.5308838
2022-10-15T04:13:10.632Z,992.5598145
2022-10-15T04:14:13.777Z,992.5967407
2022-10-15T04:15:08.210Z,992.6415405
2022-10-15T04:17:10.809Z,992.6254883
2022-10-15T04:18:12.337Z,992.6633301
2022-10-15T04:19:11.777Z,992.6160278
2022-10-15T04:20:07.562Z,992.7012329
2022-10-15T04:22:07.587Z,992.7012329
2022-10-15T04:23:07.075Z,992.6529541
2022-10-15T04:24:02.471Z,992.6819458
2022-10-15T04:25:05.909Z,992.7059326
2022-10-15T04:26:16.499Z,992.6954956
2022-10-15T04:28:13.280Z,992.6923218
2022-10-15T04:29:15.068Z,992.6841431
2022-10-15T04:30:09.313Z,992.7718506
2022-10-15T04:32:08.803Z,992.760498
2022-10-15T04:33:53.012Z,992.7059326
2022-10-15T04:34:37.724Z,992.7047119
2022-10-15T04:36:35.105Z,992.734375
2022-10-15T04:37:34.450Z,992.7182617
2022-10-15T04:38:34.143Z,992.7576294
2022-10-15T04:39:29.453Z,992.7520142
2022-10-15T04:40:34.427Z,992.6782227
2022-10-15T04:41:39.349Z,992.6526489
2022-10-15T04:42:34.492Z,992.6904907
2022-10-15T04:43:35.286Z,992.7940063
2022-10-15T04:44:29.696Z,992.7756348
2022-10-15T04:45:31.155Z,992.7457275
2022-10-15T04:47:27.010Z,992.8724976
2022-10-15T04:48:23.685Z,992.7977905
2022-10-15T04:49:25.711Z,992.7494507
2022-10-15T04:50:21.760Z,992.7415771
2022-10-15T04:52:20.772Z,992.7520142
2022-10-15T04:53:20.252Z,992.7333374
2022-10-15T04:54:15.544Z,992.7437744
2022-10-15T04:55:13.796Z,992.7093506
2022-10-15T04:57:17.997Z,992.7198486
2022-10-15T04:58:11.604Z,992.6851807
2022-10-15T04:59:10.364Z,992.7624512
2022-10-15T05:00:11.843Z,992.7301636
2022-10-15T05:01:08.130Z,992.7012329
2022-10-15T05:02:10.477Z,992.7542114
2022-10-15T05:03:04.939Z,992.7807007
2022-10-15T05:04:06.434Z,992.7784424
2022-10-15T05:05:00.612Z,992.7520142
2022-10-15T05:06:00.401Z,992.7415771
2022-10-15T05:07:03.472Z,992.7115479
2022-10-15T05:07:58.376Z,992.7115479
2022-10-15T05:09:01.954Z,992.7670898
2022-10-15T05:10:02.951Z,992.6715698
2022-10-15T05:11:06.950Z,992.6264038
2022-10-15T05:12:03.894Z,992.6394043
2022-10-15T05:13:38.215Z,992.6501465
2022-10-15T05:16:03.048Z,992.564209
2022-10-15T05:16:43.016Z,992.5175781
2022-10-15T05:17:41.153Z,992.4726563
2022-10-15T05:18:39.487Z,992.5006104
2022-10-15T05:19:34.815Z,992.4251709
2022-10-15T05:20:34.991Z,992.4581299
2022-10-15T05:22:26.846Z,992.4425659
2022-10-15T05:23:33.997Z,992.5108032
2022-10-15T05:24:33.902Z,992.4707642
2022-10-15T05:25:29.434Z,992.4512329
2022-10-15T05:27:26.698Z,992.3894653
2022-10-15T05:28:26.435Z,992.3998413
2022-10-15T05:29:23.728Z,992.4551392
2022-10-15T05:30:25.799Z,992.4020996
2022-10-15T05:31:22.442Z,992.3859863
2022-10-15T05:32:15.981Z,992.3989258
2022-10-15T05:33:18.724Z,992.4645996
2022-10-15T05:34:09.657Z,992.4854736
2022-10-15T05:35:08.699Z,992.4935913
2022-10-15T05:36:04.298Z,992.5097046
2022-10-15T05:37:02.360Z,992.4533081
2022-10-15T05:37:55.970Z,992.5513916
2022-10-15T05:39:02.339Z,992.4983521
2022-10-15T05:40:00.604Z,992.5167236
2022-10-15T05:41:52.673Z,992.5192261
2022-10-15T05:43:44.552Z,992.4926758
2022-10-15T05:44:45.294Z,992.5535889
2022-10-15T05:45:38.361Z,992.5882568
2022-10-15T05:46:40.909Z,992.5939941
2022-10-15T05:47:43.124Z,992.5857544
2022-10-15T05:48:44.324Z,992.6226807
2022-10-15T05:49:37.607Z,992.6573486
2022-10-15T05:50:43.091Z,992.6491699
2022-10-15T05:51:40.997Z,992.6170044
2022-10-15T05:52:38.867Z,992.6907959
2022-10-15T05:53:42.913Z,992.6690674
2022-10-15T05:54:36.344Z,992.6610718
2022-10-15T05:55:39.109Z,992.6954956
2022-10-15T05:56:29.975Z,992.6610718
2022-10-15T05:57:32.759Z,992.6771851
2022-10-15T05:58:25.719Z,992.7037354
2022-10-15T06:00:24.256Z,992.7296143
2022-10-15T06:01:05.743Z,992.685791
2022-10-15T06:02:07.098Z,992.7315063
2022-10-15T06:03:05.633Z,992.7235718
2022-10-15T06:04:05.010Z,992.7814331
2022-10-15T06:05:04.066Z,992.671875
2022-10-15T06:06:59.381Z,992.723877
2022-10-15T06:08:00.071Z,992.8034668
2022-10-15T06:08:55.247Z,992.8347168
2022-10-15T06:09:54.086Z,992.7415771
2022-10-15T06:10:49.811Z,992.7681274
2022-10-15T06:11:54.913Z,992.7173462
2022-10-15T06:12:50.577Z,992.7380981
2022-10-15T06:13:55.116Z,992.7324219
2022-10-15T06:14:47.772Z,992.7220459
2022-10-15T06:16:50.454Z,992.8015747
2022-10-15T06:17:42.879Z,992.7406006
2022-10-15T06:18:44.841Z,992.7463379
2022-10-15T06:19:37.897Z,992.7463379
2022-10-15T06:20:37.412Z,992.7093506
2022-10-15T06:21:32.685Z,992.796814
2022-10-15T06:22:32.652Z,992.8071899
2022-10-15T06:23:27.947Z,992.8258057
2022-10-15T06:24:28.671Z,992.8361816
2022-10-15T06:25:21.428Z,992.8440552
2022-10-15T06:27:20.222Z,992.8361816
2022-10-15T06:28:19.747Z,992.8465576
2022-10-15T06:29:20.836Z,992.8384399
2022-10-15T06:30:16.227Z,992.8384399
2022-10-15T06:31:21.839Z,992.8384399
2022-10-15T06:32:13.605Z,992.8545532
2022-10-15T06:33:16.721Z,992.9099731
2022-10-15T06:34:08.531Z,992.9260864
2022-10-15T06:35:08.434Z,992.8970947
2022-10-15T06:36:03.641Z,992.9006348
2022-10-15T06:37:08.310Z,992.9431152
2022-10-15T06:38:03.116Z,992.9084473
2022-10-15T06:39:02.938Z,992.8497925
2022-10-15T06:40:02.702Z,993.0331421
2022-10-15T06:41:53.371Z,992.9614868
2022-10-15T06:42:54.427Z,992.9006348
2022-10-15T06:44:18.916Z,992.9639893
2022-10-15T06:45:00.488Z,992.9188843
2022-10-15T06:46:00.133Z,993.0122681
2022-10-15T06:46:58.864Z,992.9431152
2022-10-15T06:47:58.408Z,992.8845215
2022-10-15T06:48:54.182Z,992.9718628
2022-10-15T06:49:53.896Z,992.958252
2022-10-15T06:50:51.034Z,993.0273438
2022-10-15T06:51:50.483Z,993.0192261
2022-10-15T06:52:45.891Z,992.9790649
2022-10-15T06:53:47.843Z,993.0480957
2022-10-15T06:54:41.934Z,993.039978
2022-10-15T06:56:03.101Z,993.0560913
2022-10-15T06:57:01.304Z,993.008728
2022-10-15T06:58:02.664Z,993.0353394
2022-10-15T06:58:57.826Z,992.9951782
2022-10-15T06:59:57.676Z,993.0560913
2022-10-15T07:00:53.091Z,992.9500732
2022-10-15T07:02:01.422Z,992.9604492
2022-10-15T07:02:53.983Z,992.9869385
2022-10-15T07:03:54.659Z,993.064209
2022-10-15T07:04:51.731Z,993.029541
2022-10-15T07:06:47.168Z,993.1172485
2022-10-15T07:07:47.420Z,993.0112305
2022-10-15T07:08:48.976Z,993.0722046
2022-10-15T07:09:41.813Z,993.0778809
2022-10-15T07:11:37.559Z,992.9879761
2022-10-15T07:12:37.389Z,993.0548706
2022-10-15T07:13:34.452Z,993.0709229
2022-10-15T07:14:34.883Z,992.991394
2022-10-15T07:15:29.628Z,993.0684204
2022-10-15T07:16:29.959Z,993.0133057
2022-10-15T07:17:29.185Z,993.09021
2022-10-15T07:19:07.602Z,993.1012573
2022-10-15T07:20:06.850Z,993.0111084
2022-10-15T07:22:02.851Z,993.0856323
2022-10-15T07:23:04.239Z,993.0292358
2022-10-15T07:23:59.723Z,992.9849243
2022-10-15T07:25:00.031Z,992.9758301
2022-10-15T07:26:24.143Z,993.1020508
2022-10-15T07:27:08.048Z,993.0351563
2022-10-15T07:27:18.650Z,993.0351563
2022-10-15T07:27:20.869Z,993.0351563
2022-10-15T07:28:05.899Z,993.0859375
2022-10-15T07:29:04.208Z,993.076355
2022-10-15T07:30:00.569Z,993.116394
2022-10-15T07:31:00.474Z,993.086792
2022-10-15T07:31:56.048Z,993.0777588
2022-10-15T07:32:56.359Z,993.0480957
2022-10-15T07:33:52.734Z,993.0310669
2022-10-15T07:34:56.238Z,993.0864258
2022-10-15T07:36:54.818Z,993.0823364
2022-10-15T07:37:53.443Z,993.1166992
2022-10-15T07:38:57.403Z,993.1193237
2022-10-15T07:39:50.948Z,993.1884155
2022-10-15T07:41:46.396Z,993.0823364
2022-10-15T07:42:48.978Z,993.1858521
2022-10-15T07:43:41.667Z,993.1040649
2022-10-15T07:44:42.755Z,993.0037231
2022-10-15T07:46:41.138Z,993.0793457
2022-10-15T07:47:33.813Z,993.095459
2022-10-15T07:48:38.088Z,993.0872803
2022-10-15T07:49:32.483Z,993.1589355
2022-10-15T07:50:36.235Z,993.1242065
2022-10-15T07:52:33.889Z,993.1829834
2022-10-15T07:53:35.955Z,993.1115723
2022-10-15T07:54:30.180Z,993.1668091
2022-10-15T07:55:29.153Z,993.071167
2022-10-15T07:57:25.614Z,993.1033325
2022-10-15T07:58:20.901Z,993.0181274
2022-10-15T07:59:20.540Z,992.9916382
2022-10-15T08:00:15.771Z,992.9837646
2022-10-15T08:02:10.753Z,992.9893799
2022-10-15T08:03:10.638Z,992.9498291
2022-10-15T08:04:05.978Z,992.9233398
2022-10-15T08:05:06.156Z,992.9107056
2022-10-15T08:06:02.205Z,992.9324341
2022-10-15T08:07:01.961Z,992.8237305
2022-10-15T08:07:57.126Z,992.8480225
2022-10-15T08:09:34.211Z,992.8545532
2022-10-15T08:10:14.143Z,992.9326782
2022-10-15T08:12:11.314Z,992.8460083
2022-10-15T08:13:06.654Z,992.8225098
2022-10-15T08:14:05.875Z,992.788147
2022-10-15T08:15:01.028Z,992.8595581
2022-10-15T08:16:01.248Z,992.8308105
2022-10-15T08:17:38.644Z,992.8184204
2022-10-15T08:18:18.894Z,992.7613525
2022-10-15T08:19:17.200Z,992.7067261
2022-10-15T08:20:17.553Z,992.7041626
2022-10-15T08:21:13.078Z,992.7067261
2022-10-15T08:22:12.956Z,992.6615601
2022-10-15T08:23:47.449Z,992.6832275
2022-10-15T08:24:27.318Z,992.704834
2022-10-15T08:26:34.886Z,992.7137451
2022-10-15T08:26:41.826Z,992.6958008
2022-10-15T08:27:42.378Z,992.7139282
2022-10-15T08:28:38.861Z,992.8258057
2022-10-15T08:29:38.224Z,992.772644
2022-10-15T08:30:33.394Z,992.7801514
2022-10-15T08:31:33.484Z,992.7745361
2022-10-15T08:32:28.739Z,992.8325195
2022-10-15T08:33:28.506Z,992.789917
2022-10-15T08:34:23.854Z,992.8800659
2022-10-15T08:35:23.625Z,992.8396606
2022-10-15T08:37:21.286Z,992.7600708
2022-10-15T08:38:17.496Z,992.7279663
2022-10-15T08:38:19.947Z,992.7279663
2022-10-15T08:39:14.914Z,992.6130981
2022-10-15T08:40:11.231Z,992.7440796
2022-10-15T08:42:12.222Z,992.7145996
2022-10-15T08:43:09.361Z,992.7401733
2022-10-15T08:44:11.542Z,992.6534424
2022-10-15T08:45:08.894Z,992.7504883
2022-10-15T08:46:13.729Z,992.831665
2022-10-15T08:47:08.975Z,992.7658691
2022-10-15T08:48:09.451Z,992.8067017
2022-10-15T08:49:10.190Z,992.8554688
2022-10-15T08:50:06.705Z,992.8132935
2022-10-15T08:52:06.163Z,992.866394
2022-10-15T08:53:06.892Z,992.8798218
2022-10-15T08:54:03.232Z,992.7629395
2022-10-15T08:55:06.647Z,992.8377075
2022-10-15T08:57:03.737Z,992.795166
2022-10-15T08:57:57.998Z,992.8322144
2022-10-15T08:59:00.651Z,992.7019043
2022-10-15T08:59:54.954Z,992.725769
2022-10-15T09:00:57.619Z,992.651123
2022-10-15T09:01:51.917Z,992.6671753
2022-10-15T09:02:50.506Z,992.7285156
2022-10-15T09:03:49.721Z,992.6326294
2022-10-15T09:04:46.109Z,992.6431885
2022-10-15T09:05:46.460Z,992.711853
2022-10-15T09:06:41.969Z,992.7490845
2022-10-15T09:07:44.662Z,992.7564087
2022-10-15T09:08:40.210Z,992.7287598
2022-10-15T09:09:37.731Z,992.7498169
2022-10-15T09:10:37.753Z,992.7734375
2022-10-15T09:12:35.542Z,992.6721802
2022-10-15T09:14:10.342Z,992.6224365
2022-10-15T09:16:24.714Z,992.701416
2022-10-15T09:17:07.503Z,992.6802979
2022-10-15T09:18:06.669Z,992.6381836
2022-10-15T09:19:06.090Z,992.6300049
2022-10-15T09:20:01.835Z,992.6326294
2022-10-15T09:21:02.202Z,992.6084595
2022-10-15T09:21:57.668Z,992.5979614
2022-10-15T09:22:58.057Z,992.5181274
2022-10-15T09:23:53.552Z,992.6166382
2022-10-15T09:24:54.062Z,992.5634155
2022-10-15T09:26:50.897Z,992.5502319
2022-10-15T09:27:47.287Z,992.4709473
2022-10-15T09:28:47.543Z,992.4498291
2022-10-15T09:29:43.268Z,992.4182129
2022-10-15T09:31:40.461Z,992.428772
2022-10-15T09:32:38.303Z,992.4846802
2022-10-15T09:33:39.297Z,992.3892212
2022-10-15T09:34:34.883Z,992.4529419
2022-10-15T13:25:15.867Z,991.0571289
2022-10-15T13:26:17.745Z,991.0271606
2022-10-15T13:27:14.607Z,991.0445557
2022-10-15T13:28:16.362Z,991.1314697
2022-10-15T13:29:12.927Z,991.1540527
2022-10-15T13:30:16.984Z,991.034668
2022-10-15T13:32:13.147Z,991.0446167
2022-10-15T13:33:09.726Z,990.9779053
2022-10-15T13:34:10.662Z,991.0744019
2022-10-15T13:35:07.042Z,991.0479736
2022-10-15T13:36:10.471Z,991.019043
2022-10-15T13:37:04.819Z,991.0060425
2022-10-15T13:38:05.672Z,991.0754395
2022-10-15T13:39:01.756Z,991.0140381
2022-10-15T13:40:06.596Z,991.0248413
2022-10-15T13:40:08.268Z,991.0248413
2022-10-15T13:41:00.846Z,991.0384521
2022-10-15T13:41:56.622Z,991.0651855
2022-10-15T13:42:57.172Z,991.1130981
2022-10-15T13:43:54.235Z,991.0651855
2022-10-15T13:45:29.223Z,991.0651855
2022-10-15T13:45:49.252Z,991.0889282
2022-10-15T13:47:47.173Z,991.0513916
2022-10-15T13:49:40.882Z,991.0650024
2022-10-15T13:50:41.133Z,991.0515747
2022-10-15T13:51:36.664Z,991.1184082
2022-10-15T13:52:36.093Z,991.1345215
2022-10-15T13:53:30.979Z,991.1157837
2022-10-15T13:54:32.748Z,991.0784302
2022-10-15T13:55:29.707Z,991.0653076
2022-10-15T13:57:27.182Z,991.0653076
2022-10-15T13:58:27.702Z,991.0571289
2022-10-15T13:59:21.664Z,991.0599976
2022-10-15T14:00:21.304Z,991.0357666
2022-10-15T14:02:13.216Z,991.0970459
2022-10-15T14:03:14.905Z,991.1129761
2022-10-15T14:04:08.314Z,991.0461426
2022-10-15T14:05:10.259Z,991.0461426
2022-10-15T14:06:02.250Z,991.0650024
2022-10-15T14:07:02.411Z,991.1048584
2022-10-15T14:07:57.229Z,991.0809326
2022-10-15T14:08:56.444Z,991.0117188
2022-10-15T14:09:50.885Z,991.0917358
2022-10-15T14:10:52.625Z,991.0354614
2022-10-15T14:12:43.075Z,990.928894
2022-10-15T14:13:42.300Z,990.9821777
2022-10-15T14:14:39.170Z,991.0170288
2022-10-15T14:15:33.741Z,991.0248413
2022-10-15T14:16:35.697Z,991.0756226
2022-10-15T14:17:28.482Z,991.1154785
2022-10-15T14:18:30.324Z,991.0650024
2022-10-15T14:19:22.572Z,991.107666
2022-10-15T14:20:27.923Z,991.0543823
2022-10-15T14:22:47.724Z,991.0970459
2022-10-15T14:22:54.782Z,991.1132813
2022-10-15T14:23:54.686Z,991.1104736
2022-10-15T14:24:49.503Z,991.0918579
2022-10-15T14:25:48.506Z,991.0865479
2022-10-15T14:26:43.739Z,991.0678101
2022-10-15T14:27:43.475Z,991.1157837
2022-10-15T14:28:38.416Z,991.1397095
2022-10-15T14:29:39.955Z,991.0543823
2022-10-15T14:30:32.433Z,991.0834961
2022-10-15T14:32:26.873Z,991.078125
2022-10-15T14:33:27.105Z,991.0437012
2022-10-15T14:34:22.318Z,991.0650024
2022-10-15T14:35:21.146Z,991.078125
2022-10-15T14:36:15.504Z,990.9476318
2022-10-15T14:37:14.678Z,991.0461426
2022-10-15T14:38:09.022Z,991.0568237
2022-10-15T14:39:08.280Z,991.0834351
2022-10-15T14:40:03.551Z,991.0354614
2022-10-15T14:41:04.847Z,991.1235962
2022-10-15T14:41:07.336Z,991.1235962
2022-10-15T14:41:59.861Z,991.0675049
2022-10-15T14:42:55.074Z,991.0276489
2022-10-15T14:43:56.500Z,991.038269
2022-10-15T14:44:48.535Z,991.1769409
2022-10-15T14:45:54.747Z,991.0809326
2022-10-15T14:46:49.158Z,991.2380981
2022-10-15T14:47:46.781Z,991.1794434
2022-10-15T14:48:48.184Z,991.187561
2022-10-15T14:49:43.275Z,991.2061157
2022-10-15T14:50:46.166Z,991.2327271
2022-10-15T14:51:43.519Z,991.2941895
2022-10-15T14:52:40.931Z,991.3474731
2022-10-15T14:53:41.120Z,991.4701538
2022-10-15T14:54:36.296Z,991.4886475
2022-10-15T14:55:36.077Z,991.5661011
2022-10-15T14:56:32.352Z,991.5714722
2022-10-15T14:57:32.293Z,991.5714722
2022-10-15T14:58:31.124Z,991.5767822
2022-10-15T15:00:29.299Z,991.5420532
2022-10-15T15:00:55.198Z,991.6060791
2022-10-15T15:01:58.535Z,991.600769
2022-10-15T15:02:02.895Z,991.600769
2022-10-15T15:02:55.616Z,991.5716553
2022-10-15T15:03:50.834Z,991.5368042
2022-10-15T15:04:50.149Z,991.595459
2022-10-15T15:05:45.570Z,991.6568604
2022-10-15T15:06:51.010Z,991.6646729
2022-10-15T15:07:45.545Z,991.680603
2022-10-15T15:08:44.929Z,991.6620483
2022-10-15T15:09:40.225Z,991.6218872
2022-10-15T15:10:40.267Z,991.6537476
2022-10-15T15:11:34.948Z,991.7550049
2022-10-15T15:12:37.479Z,991.6802979
2022-10-15T15:13:29.963Z,991.7388916
2022-10-15T15:14:30.075Z,991.7310791
2022-10-15T15:15:24.581Z,991.6802368
2022-10-15T15:16:26.206Z,991.6296997
2022-10-15T15:17:21.843Z,991.6509399
2022-10-15T15:18:23.837Z,991.5947876
2022-10-15T15:19:18.068Z,991.6295166
2022-10-15T15:20:16.353Z,991.6774902
2022-10-15T15:21:10.495Z,991.632019
2022-10-15T15:22:07.149Z,991.6560669
2022-10-15T15:23:09.307Z,991.666748
2022-10-15T15:24:05.988Z,991.6798706
2022-10-15T15:25:08.338Z,991.7359619
2022-10-15T15:26:00.418Z,991.7011108
2022-10-15T15:27:00.164Z,991.7383423
2022-10-15T15:27:56.231Z,991.7437744
2022-10-15T15:28:59.535Z,991.7810059
2022-10-15T15:29:52.673Z,991.7543945
2022-10-15T15:30:55.179Z,991.6796875
2022-10-15T15:32:46.812Z,991.727478
2022-10-15T15:33:46.313Z,991.7302856
2022-10-15T15:34:38.963Z,991.756897
2022-10-15T15:35:41.170Z,991.6876831
2022-10-15T15:37:34.704Z,991.7379761
2022-10-15T15:39:34.420Z,991.7192993
2022-10-15T15:41:01.025Z,991.6872559
2022-10-15T15:41:41.691Z,991.7672119
2022-10-15T15:42:45.913Z,991.6951294
2022-10-15T15:43:45.358Z,991.7484131
2022-10-15T15:44:44.976Z,991.7990723
2022-10-15T15:45:41.253Z,991.8120117
2022-10-15T15:46:39.792Z,991.833252
2022-10-15T15:47:40.960Z,991.8225098
2022-10-15T15:48:38.924Z,991.8276367
2022-10-15T15:49:38.015Z,991.8382568
2022-10-15T15:50:33.666Z,991.8648682
2022-10-15T15:51:33.410Z,991.8515625
2022-10-15T15:52:31.280Z,991.9018555
2022-10-15T15:52:36.269Z,991.9018555
2022-10-15T15:53:28.923Z,991.899353
2022-10-15T15:54:28.646Z,991.9338989
2022-10-15T15:55:24.845Z,991.9338989
2022-10-15T15:56:24.684Z,991.9550781
2022-10-15T15:57:23.020Z,992.0029907
2022-10-15T15:58:22.868Z,991.9442139
2022-10-15T15:59:18.388Z,992.0240479
2022-10-15T16:00:16.801Z,991.9944458
2022-10-15T16:01:24.983Z,992.0317383
2022-10-15T16:02:18.296Z,992.095459
2022-10-15T16:03:14.854Z,992.1140137
2022-10-15T16:04:17.115Z,992.1060791
2022-10-15T16:05:11.352Z,992.060791
2022-10-15T16:06:15.411Z,992.0795288
2022-10-15T16:07:13.192Z,992.1511841
2022-10-15T16:08:11.499Z,992.1351318
2022-10-15T16:09:04.370Z,992.1245117
2022-10-15T16:10:04.890Z,992.0818481
2022-10-15T16:11:00.645Z,992.0764771
2022-10-15T16:12:00.661Z,992.1750488
2022-10-15T16:12:59.893Z,992.0792236
2022-10-15T16:13:59.076Z,992.1348267
2022-10-15T16:14:59.698Z,992.2358398
2022-10-15T16:16:01.561Z,992.2463989